Farleys Point, New York
Current Conditions -  °F | °C
As of 6:53 AM on Monday 20 Oct 2014 (Local Time) from KPEO Reporting Station
Scattered Clouds Scattered Clouds  
Wind Chill: 37°   Ceiling: Unl
Heat Index: 41°   Visibility: 10mi
Dew Point: 34°   Wind: 6mph
Humidity: 76%   Direction: 220°SW
Pressure: 29.97"   Gusts: NA
Location:  42.8228°N, 76.6558°W
Report Text: KPEO 201053Z AUTO 22005KT 10SM SCT110 05/01 A2997 RMK AO2 SLP156 T00500011
Loading
Personal Weather Stations






























Interactive Weather Map
Tropical Storm Tracking
New forecast layout! Learn more

10-Day Weather Forecast

Advertisements
Track Severe Weather on mobile